メインページ
METAR-TAF:

METAR-TAF

空港 :

ベン・グリオン国際空港

テルアビブ / ベン・グリオン, イスラエル

緯度: 32-00N, 経度: 034-54E, 海抜: 40m

現時点の気象観測

当レポートは26分前の20:50(UTC)に作成
変向風 2kt
気温 26°C
湿度 70%
気圧 1006 hPa
視程10km以上
1,500メートル以下は雲なし、積乱雲なし

METAR: LLBG 192050Z VRB02KT CAVOK 26/20 Q1006 NOSIG

時間: 00:16 (21:16 UTC)

予報

当レポートは4時間15分前の17:01(UTC)に作成
予報は19日の 18時(UTC)から 20日の 18時(UTC)まで有効
西の風 7kt
視程10km以上
高度3000ftの雲は散在している
19日の 19時(UTC)から 19日の 21時(UTC)まで徐々に
変向風 3kt
高度2500ftの雲は散在している
19日の 22時(UTC)から 19日の 23時(UTC)まで徐々に
南/南東の風 4kt
20日の 07時(UTC)から 20日の 09時(UTC)まで徐々に
西の風 10kt
視程10km以上
1,500メートル以下は雲なし、積乱雲なし
20日の 15時(UTC)から 20日の 17時(UTC)まで徐々に
西/北西の風 5kt
視程10km以上
高度2000ftの雲はほとんどない

TAF: LLBG 191701Z 1918/2018 28007KT 9999 SCT030 BECMG 1919/1921 VRB03KT SCT025 BECMG 1922/1923 16004KT BECMG 2007/2009 28010KT CAVOK BECMG 2015/2017 30005KT 9999 FEW020 TX32/2012Z TN24/2003Z

4,000以上の空港の気象観測と天気予報(METAR報とTAF報)

利用可能な観測所は地図上に黄色い丸と赤い丸で示す。

丸の上にカーソルを重ねると観測所名を参照できる。

次にクリックすると気象観測と天気予報を参照できる。

マップの切り替え:黒色「×」印の緑ボタンをクリックして拡大、「-」印の緑ボタンをクリックして縮小、緑色の三角印をクリックして隣りの地図に切り替え


METAR-TAF: